Time;durP1;ratioP1;P1;durP2;ratioP2;P2;SDS_P1;SDS_P2;PMS_P1;PMS_P2;Temp;Humidity;BMP_temperature;BMP_pressure;BME280_temperature;BME280_humidity;BME280_pressure;Samples;Min_cycle;Max_cycle;Signal;HPM_P1;HPM_P2
2021/11/15 00:02:09;;;;;;;16.33;10.37;;;9.50;96.60;;;9.61;69.22;98107.31;5024494;28;20055;-44
2021/11/15 00:04:38;;;;;;;16.30;11.30;;;9.50;96.50;;;9.60;69.15;98110.97;5022996;28;20065;-45
2021/11/15 00:07:06;;;;;;;17.80;10.70;;;9.50;96.60;;;9.59;68.88;98103.97;5023967;28;20053;-43
2021/11/15 00:09:34;;;;;;;17.03;10.33;;;9.50;96.70;;;9.58;69.03;98103.13;5026042;28;20233;-44
2021/11/15 00:12:04;;;;;;;20.10;11.57;;;9.50;96.60;;;9.56;68.82;98104.28;5022967;28;20363;-44
2021/11/15 00:14:32;;;;;;;18.97;10.60;;;9.50;96.50;;;9.56;69.09;98110.41;5024257;28;20053;-44
2021/11/15 00:17:00;;;;;;;20.03;11.83;;;9.40;96.30;;;9.55;68.71;98103.41;5025607;28;20045;-44
2021/11/15 00:19:28;;;;;;;20.03;11.23;;;9.40;96.20;;;9.57;69.09;98101.44;5023654;28;20045;-44
2021/11/15 00:21:56;;;;;;;17.13;10.07;;;9.40;96.30;;;9.58;68.78;98116.44;5025866;28;20068;-43
2021/11/15 00:24:24;;;;;;;18.77;9.70;;;9.40;96.20;;;9.55;68.77;98103.41;5024912;28;20045;-45
2021/11/15 00:26:52;;;;;;;16.83;9.30;;;9.40;96.10;;;9.52;68.60;98109.03;5024960;28;20054;-43
2021/11/15 00:29:20;;;;;;;17.07;10.20;;;9.50;96.10;;;9.53;68.83;98117.84;5024469;28;20061;-44
2021/11/15 00:31:48;;;;;;;16.37;10.07;;;9.40;96.10;;;9.52;68.69;98111.69;5025745;28;20053;-43
2021/11/15 00:34:16;;;;;;;19.17;10.67;;;9.40;96.20;;;9.52;68.57;98108.16;5023262;28;20071;-45
2021/11/15 00:36:44;;;;;;;17.33;10.10;;;9.40;95.90;;;9.52;69.00;98110.81;5025481;28;20453;-44
2021/11/15 00:39:12;;;;;;;16.23;10.27;;;9.40;96.00;;;9.51;68.75;98103.84;5025622;28;20057;-44
2021/11/15 00:41:40;;;;;;;16.13;10.13;;;9.40;96.10;;;9.49;68.66;98105.81;5023624;28;20064;-44
2021/11/15 00:44:08;;;;;;;18.43;10.37;;;9.40;96.00;;;9.49;68.91;98104.00;5025274;28;20056;-45
2021/11/15 00:46:36;;;;;;;17.47;10.47;;;9.40;96.20;;;9.48;68.71;98104.97;5024828;28;20056;-43
2021/11/15 00:49:04;;;;;;;17.57;11.57;;;9.30;96.20;;;9.49;69.22;98117.28;5022764;28;20370;-44
2021/11/15 00:51:32;;;;;;;19.07;11.10;;;9.40;96.30;;;9.48;68.83;98110.31;5023534;28;20072;-47
2021/11/15 00:54:00;;;;;;;19.73;11.53;;;9.40;96.30;;;9.48;68.54;98122.72;5026475;28;20064;-45
2021/11/15 00:56:28;;;;;;;16.83;11.10;;;9.40;97.00;;;9.46;68.92;98115.75;5026503;28;20064;-44
2021/11/15 00:58:56;;;;;;;18.83;12.43;;;9.30;96.10;;;9.46;68.99;98125.56;5027332;28;20052;-44
2021/11/15 01:01:24;;;;;;;20.70;12.33;;;9.30;96.30;;;9.44;68.64;98122.16;5027690;28;20058;-45
2021/11/15 01:03:52;;;;;;;19.93;12.63;;;9.30;96.40;;;9.43;68.66;98124.00;5028188;28;20209;-44
2021/11/15 01:06:20;;;;;;;21.07;12.07;;;9.30;96.50;;;9.43;68.74;98117.84;5028156;28;20052;-43
2021/11/15 01:08:48;;;;;;;24.63;14.73;;;9.30;96.10;;;9.40;68.58;98113.66;5028063;28;20564;-44
2021/11/15 01:11:16;;;;;;;20.83;12.67;;;9.20;95.60;;;9.39;68.61;98111.16;5029797;28;20041;-44
2021/11/15 01:13:44;;;;;;;23.17;13.67;;;9.20;95.90;;;9.39;68.72;98124.44;5027971;28;20239;-44
2021/11/15 01:16:13;;;;;;;23.87;14.67;;;9.20;95.90;;;9.37;68.54;98116.59;5027905;28;20055;-44
2021/11/15 01:18:43;;;;;;;22.53;13.90;;;9.30;95.60;;;9.39;68.66;98114.63;5027953;28;20237;-43
2021/11/15 01:21:13;;;;;;;21.33;13.37;;;9.30;95.60;;;9.38;68.28;98117.44;5028891;28;20045;-43
2021/11/15 01:23:41;;;;;;;20.47;13.27;;;9.30;95.80;;;9.37;68.49;98121.09;5028430;28;20049;-44
2021/11/15 01:26:10;;;;;;;20.37;12.77;;;9.20;95.50;;;9.34;68.44;98111.56;5028623;28;20052;-45
2021/11/15 01:28:38;;;;;;;21.53;13.00;;;9.20;95.20;;;9.36;68.36;98117.56;5027964;28;20053;-45
2021/11/15 01:31:06;;;;;;;23.63;12.20;;;9.20;95.20;;;9.36;68.66;98117.56;5027295;28;20057;-43
2021/11/15 01:33:34;;;;;;;21.37;12.87;;;9.20;95.40;;;9.37;68.20;98113.94;5028254;28;20046;-44
2021/11/15 01:36:02;;;;;;;19.97;12.77;;;9.20;95.50;;;9.37;68.17;98113.94;5027326;28;20063;-44
2021/11/15 01:38:30;;;;;;;20.40;11.87;;;9.20;95.40;;;9.37;68.46;98119.25;5022105;28;20057;-44
2021/11/15 01:40:58;;;;;;;21.23;12.63;;;9.20;95.30;;;9.37;68.53;98103.31;5005479;28;20054;-43
2021/11/15 01:43:26;;;;;;;20.10;12.10;;;9.20;95.30;;;9.36;68.26;98108.75;5007920;28;20052;-43
2021/11/15 01:45:54;;;;;;;21.00;11.80;;;9.20;95.40;;;9.32;67.99;98107.38;5008217;28;20052;-45
2021/11/15 01:48:22;;;;;;;21.40;12.10;;;9.20;95.20;;;9.32;68.37;98110.84;5008332;28;20057;-45
2021/11/15 01:50:50;;;;;;;21.50;13.17;;;9.20;95.20;;;9.31;68.37;98103.88;5007827;28;20065;-44
2021/11/15 01:53:19;;;;;;;23.53;12.50;;;9.20;95.20;;;9.30;68.21;98104.84;5007561;28;20056;-44
2021/11/15 01:55:47;;;;;;;21.87;13.40;;;9.20;95.20;;;9.31;68.32;98097.75;5008587;28;20070;-42
2021/11/15 01:58:17;;;;;;;19.23;11.23;;;9.20;95.20;;;9.30;68.08;98091.56;5007390;28;20091;-43
2021/11/15 02:00:54;;;;;;;19.73;12.57;;;9.20;95.00;;;9.29;68.39;98095.22;5007073;28;20344;-47
2021/11/15 02:03:25;;;;;;;20.53;12.30;;;9.20;95.00;;;9.30;68.06;98093.41;5008259;28;20057;-44
2021/11/15 02:05:54;;;;;;;20.30;11.30;;;9.10;95.00;;;9.28;67.92;98093.53;5007229;28;20068;-44
2021/11/15 02:08:22;;;;;;;19.83;11.67;;;9.10;94.90;;;9.27;68.28;98087.38;5007560;28;20058;-44
2021/11/15 02:10:51;;;;;;;18.33;11.20;;;9.10;95.20;;;9.26;68.34;98091.00;5008082;28;20459;-44
2021/11/15 02:13:21;;;;;;;20.73;13.03;;;9.10;95.20;;;9.26;68.31;98091.00;5006560;28;20061;-44
2021/11/15 02:15:51;;;;;;;20.57;11.10;;;9.10;95.20;;;9.27;68.34;98091.88;5007184;28;20068;-44
2021/11/15 02:18:22;;;;;;;20.33;11.87;;;9.10;95.10;;;9.25;68.07;98092.00;5007217;28;20062;-44
2021/11/15 02:21:01;;;;;;;23.63;13.50;;;9.10;95.00;;;9.24;68.06;98090.31;5006974;28;20268;-44
2021/11/15 02:23:34;;;;;;;20.27;12.53;;;9.10;94.90;;;9.25;68.23;98091.19;5007468;28;20252;-44
2021/11/15 02:26:05;;;;;;;22.40;13.33;;;9.10;95.10;;;9.26;68.27;98084.88;5007839;28;20283;-44
2021/11/15 02:28:40;;;;;;;20.97;12.17;;;9.10;95.00;;;9.24;68.24;98079.69;5007863;28;20049;-44
2021/11/15 02:31:11;;;;;;;20.00;12.90;;;9.10;94.90;;;9.24;68.16;98085.00;5007658;28;20058;-46
2021/11/15 02:33:40;;;;;;;17.77;11.43;;;9.10;95.10;;;9.23;68.24;98086.00;5006676;28;20062;-45
2021/11/15 02:36:09;;;;;;;21.77;12.03;;;9.00;94.90;;;9.23;68.25;98083.34;5008312;28;20060;-44
2021/11/15 02:38:38;;;;;;;18.97;12.47;;;9.10;95.00;;;9.23;68.00;98080.69;5007248;28;20057;-46
2021/11/15 02:41:06;;;;;;;18.27;11.17;;;9.00;94.80;;;9.22;68.05;98081.66;5005905;28;20046;-44
2021/11/15 02:43:35;;;;;;;18.07;11.53;;;9.10;94.90;;;9.20;67.92;98080.94;5007159;28;20056;-44
2021/11/15 02:46:03;;;;;;;21.57;11.37;;;9.00;94.80;;;9.19;67.79;98086.41;5007293;28;20050;-44
2021/11/15 02:48:31;;;;;;;18.43;11.57;;;9.00;94.70;;;9.19;68.13;98078.44;5006310;28;20277;-44
2021/11/15 02:50:59;;;;;;;17.37;10.97;;;9.00;94.80;;;9.18;67.91;98080.25;5006613;28;20072;-44
2021/11/15 02:53:28;;;;;;;18.23;10.57;;;9.00;94.70;;;9.19;67.74;98087.25;5006670;28;20071;-44
2021/11/15 02:55:56;;;;;;;19.27;12.33;;;9.00;94.70;;;9.21;67.82;98092.44;5006145;28;20263;-44
2021/11/15 02:58:24;;;;;;;18.30;10.90;;;9.10;94.60;;;9.21;67.96;98092.44;5005304;28;20398;-44
2021/11/15 03:01:10;;;;;;;19.80;10.57;;;9.10;94.60;;;9.22;68.13;98091.44;5003813;28;20057;-44
2021/11/15 03:03:39;;;;;;;17.07;10.07;;;9.10;94.50;;;9.19;68.10;98095.22;5006040;28;20466;-44
2021/11/15 03:06:07;;;;;;;17.10;10.73;;;9.00;94.30;;;9.20;67.59;98086.25;5006236;28;20042;-43
2021/11/15 03:08:36;;;;;;;17.10;11.13;;;9.10;94.40;;;9.19;67.97;98095.22;5005911;28;20068;-45
2021/11/15 03:11:06;;;;;;;18.63;10.13;;;9.10;94.40;;;9.18;67.93;98090.88;5004896;28;20076;-44
2021/11/15 03:13:40;;;;;;;18.90;10.70;;;9.00;94.10;;;9.19;67.91;98086.41;5006465;28;20072;-44
2021/11/15 03:16:10;;;;;;;17.20;10.70;;;9.00;94.00;;;9.17;67.81;98083.91;5006386;28;20602;-45
2021/11/15 03:18:42;;;;;;;16.87;10.93;;;9.00;94.10;;;9.17;67.79;98088.38;5005787;28;20060;-45
2021/11/15 03:21:18;;;;;;;16.77;9.57;;;9.00;94.00;;;9.15;67.63;98092.97;5006522;28;20229;-45
2021/11/15 03:23:50;;;;;;;18.17;10.43;;;9.00;94.00;;;9.13;67.61;98093.16;5005821;28;20057;-44
2021/11/15 03:26:19;;;;;;;18.40;10.47;;;9.00;93.80;;;9.14;67.79;98088.66;5006917;28;20058;-44
2021/11/15 03:28:51;;;;;;;16.57;11.13;;;9.00;94.00;;;9.14;67.59;98086.84;5004987;28;20061;-44
2021/11/15 03:31:28;;;;;;;17.23;10.60;;;9.00;94.20;;;9.14;67.76;98091.31;5005384;28;20064;-44
2021/11/15 03:34:04;;;;;;;20.67;10.80;;;8.90;94.20;;;9.13;67.78;98089.63;5005272;28;20064;-44
2021/11/15 03:36:33;;;;;;;15.77;9.93;;;8.90;94.20;;;9.11;67.48;98088.94;5006766;28;20049;-43
2021/11/15 03:39:03;;;;;;;19.03;9.77;;;8.90;94.30;;;9.10;67.56;98084.63;5006804;28;20052;-43
2021/11/15 03:41:35;;;;;;;16.10;10.03;;;8.90;94.50;;;9.09;67.90;98080.28;5006305;28;20060;-43
2021/11/15 03:44:05;;;;;;;16.50;10.20;;;8.90;94.70;;;9.10;67.77;98081.97;5005211;28;20065;-44
2021/11/15 03:46:33;;;;;;;16.53;9.87;;;8.90;94.70;;;9.11;67.73;98073.00;5005396;28;20260;-44
2021/11/15 03:49:01;;;;;;;19.60;11.57;;;8.90;94.60;;;9.09;67.91;98075.78;5007447;28;20053;-44
2021/11/15 03:51:29;;;;;;;17.33;9.50;;;8.90;94.40;;;9.09;67.71;98082.94;5005240;28;20069;-43
2021/11/15 03:53:57;;;;;;;19.43;10.80;;;8.90;94.30;;;9.10;67.84;98082.78;5005285;28;20280;-44
2021/11/15 03:56:27;;;;;;;18.10;10.03;;;8.90;94.30;;;9.09;67.85;98077.63;5005772;28;20064;-47
2021/11/15 03:58:57;;;;;;;18.20;10.27;;;8.90;94.10;;;9.07;67.51;98077.75;5005272;28;20046;-44
2021/11/15 04:01:30;;;;;;;16.30;9.67;;;8.90;94.20;;;9.06;67.68;98079.56;5004568;28;20253;-46
2021/11/15 04:04:00;;;;;;;17.35;9.57;;;8.80;94.00;;;9.04;67.67;98081.53;5006046;28;20045;-44
2021/11/15 04:06:31;;;;;;;19.07;10.30;;;8.80;93.80;;;9.02;67.67;98082.66;5005089;28;20482;-45
2021/11/15 04:09:06;;;;;;;17.60;10.73;;;8.80;94.20;;;9.03;67.70;98086.97;5002339;28;20060;-43
2021/11/15 04:11:36;;;;;;;20.10;12.13;;;8.80;94.20;;;9.02;67.75;98091.47;5005379;28;20068;-44
2021/11/15 04:14:08;;;;;;;21.53;12.83;;;8.80;94.10;;;9.02;67.50;98080.00;5004617;28;20071;-45
2021/11/15 04:16:36;;;;;;;22.20;12.13;;;8.80;94.10;;;9.00;67.63;98082.81;5004161;28;20048;-44
2021/11/15 04:19:14;;;;;;;19.20;11.30;;;8.80;94.20;;;8.99;67.58;98088.25;5004051;28;20049;-43
2021/11/15 04:21:43;;;;;;;18.93;10.87;;;8.80;93.90;;;8.99;67.29;98086.41;5005377;28;20049;-44
2021/11/15 04:24:10;;;;;;;16.33;10.13;;;8.80;93.80;;;9.00;67.38;98084.63;5006363;28;20282;-44
2021/11/15 04:26:38;;;;;;;18.77;10.43;;;8.80;93.70;;;9.01;67.25;98094.25;5005307;28;20057;-44
2021/11/15 04:29:06;;;;;;;15.23;8.60;;;8.80;93.80;;;8.99;67.50;98081.09;5004831;28;20580;-45
2021/11/15 04:31:34;;;;;;;14.73;9.83;;;8.80;93.50;;;8.98;67.36;98081.28;5007512;28;20362;-45
2021/11/15 04:34:02;;;;;;;15.37;8.50;;;8.80;93.50;;;8.96;67.22;98078.75;5005185;28;20678;-44
2021/11/15 04:36:30;;;;;;;14.37;9.27;;;8.80;93.40;;;8.95;67.22;98071.75;5005392;28;20430;-44
2021/11/15 04:38:58;;;;;;;14.63;9.23;;;8.80;93.40;;;8.94;67.24;98078.06;5006293;28;20598;-45
2021/11/15 04:41:26;;;;;;;13.23;8.47;;;8.70;93.30;;;8.93;67.23;98078.19;5004372;28;20054;-44
2021/11/15 04:43:54;;;;;;;13.63;8.63;;;8.70;93.60;;;8.91;67.45;98075.66;5003229;28;20061;-43
2021/11/15 04:46:22;;;;;;;14.90;8.87;;;8.70;93.40;;;8.91;67.42;98074.84;5006544;28;20230;-45
2021/11/15 04:48:51;;;;;;;14.80;8.93;;;8.70;93.50;;;8.90;67.20;98074.00;5004177;28;20271;-43
2021/11/15 04:51:19;;;;;;;12.00;8.00;;;8.70;93.50;;;8.90;66.92;98066.03;5006226;28;20054;-44
2021/11/15 04:53:47;;;;;;;15.17;9.37;;;8.70;93.50;;;8.89;67.24;98064.34;5004216;28;20058;-44
2021/11/15 04:56:14;;;;;;;15.87;8.53;;;8.70;93.50;;;8.90;67.47;98066.03;5006168;28;20060;-44
2021/11/15 04:58:42;;;;;;;13.30;8.53;;;8.70;93.50;;;8.92;67.39;98065.88;5005464;28;20563;-44
2021/11/15 05:01:11;;;;;;;14.47;9.30;;;8.70;93.30;;;8.91;67.04;98069.53;5004365;28;20549;-45
2021/11/15 05:03:39;;;;;;;15.83;8.50;;;8.70;93.10;;;8.89;67.10;98072.31;5004079;28;20058;-43
2021/11/15 05:06:07;;;;;;;15.17;8.70;;;8.70;93.00;;;8.87;67.21;98069.78;5004041;28;20344;-43
2021/11/15 05:08:35;;;;;;;14.30;8.30;;;8.70;93.00;;;8.90;67.35;98073.16;5003820;28;20072;-44
2021/11/15 05:11:03;;;;;;;12.67;8.13;;;8.70;93.00;;;8.88;67.16;98070.66;5004437;28;20062;-43
2021/11/15 05:13:31;;;;;;;13.97;8.90;;;8.70;93.20;;;8.89;67.12;98069.66;5005311;28;20062;-44
2021/11/15 05:15:59;;;;;;;12.80;8.30;;;8.70;93.20;;;8.85;67.18;98069.09;5004959;28;20060;-44
2021/11/15 05:18:27;;;;;;;13.83;9.00;;;8.70;92.70;;;8.85;67.05;98081.53;5005287;28;20662;-45
2021/11/15 05:20:55;;;;;;;16.70;8.67;;;8.70;93.00;;;8.83;66.97;98072.88;5004490;28;20054;-44
2021/11/15 05:23:24;;;;;;;14.53;8.67;;;8.70;93.00;;;8.83;66.99;98073.72;5004757;28;20057;-44
2021/11/15 05:25:52;;;;;;;14.47;8.03;;;8.70;93.20;;;8.85;67.18;98070.91;5003655;28;20056;-44
2021/11/15 05:28:20;;;;;;;14.83;8.20;;;8.70;93.00;;;8.85;67.01;98071.75;5004008;28;20053;-44
2021/11/15 05:30:48;;;;;;;13.67;8.30;;;8.70;93.00;;;8.85;66.93;98074.41;5004624;28;20060;-45
2021/11/15 05:33:17;;;;;;;12.70;8.43;;;8.70;92.90;;;8.86;66.93;98078.75;5003951;28;20058;-45
2021/11/15 05:35:44;;;;;;;11.47;7.47;;;8.70;92.90;;;8.84;66.91;98072.75;5003871;28;20045;-43
2021/11/15 05:38:12;;;;;;;15.90;8.93;;;8.70;92.90;;;8.85;67.37;98076.22;5004020;28;20392;-43
2021/11/15 05:40:40;;;;;;;15.87;8.40;;;8.70;92.90;;;8.85;67.06;98071.75;5006708;28;20050;-44
2021/11/15 05:43:08;;;;;;;16.13;9.20;;;8.70;92.70;;;8.84;66.94;98067.44;5007962;28;20417;-44
2021/11/15 05:45:36;;;;;;;12.30;7.60;;;8.70;92.90;;;8.84;66.94;98067.44;5008675;28;20455;-44
2021/11/15 05:48:04;;;;;;;14.93;8.40;;;8.70;92.80;;;8.85;67.01;98065.63;5007780;28;20045;-45
2021/11/15 05:50:32;;;;;;;13.90;7.43;;;8.70;92.90;;;8.83;66.88;98071.06;5008281;28;20050;-45
2021/11/15 05:53:00;;;;;;;14.20;8.13;;;8.60;92.60;;;8.85;66.84;98076.22;5007176;28;20256;-45
2021/11/15 05:55:28;;;;;;;12.80;8.53;;;8.70;92.70;;;8.84;66.92;98082.50;5008191;28;20049;-43
2021/11/15 05:57:56;;;;;;;14.20;8.43;;;8.70;92.70;;;8.82;66.92;98087.97;5008000;28;20058;-43
2021/11/15 06:00:29;;;;;;;12.47;8.53;;;8.60;92.80;;;8.81;67.10;98091.59;5007496;28;20050;-43
2021/11/15 06:02:57;;;;;;;11.87;8.70;;;8.60;92.80;;;8.81;66.81;98085.47;5008093;28;20057;-44
2021/11/15 06:05:27;;;;;;;14.10;8.43;;;8.60;92.80;;;8.80;67.01;98079.31;5008034;28;20068;-45
2021/11/15 06:07:56;;;;;;;17.00;10.50;;;8.60;92.80;;;8.80;66.98;98092.59;5007117;28;20064;-43
2021/11/15 06:10:29;;;;;;;14.57;9.00;;;8.60;92.80;;;8.79;66.99;98103.34;5007929;28;20476;-43
2021/11/15 06:12:57;;;;;;;17.57;10.33;;;8.60;92.70;;;8.78;66.83;98105.16;5006435;28;20058;-43
2021/11/15 06:15:25;;;;;;;18.50;10.60;;;8.60;92.70;;;8.80;66.94;98105.00;5006396;28;20064;-45
2021/11/15 06:17:53;;;;;;;17.97;10.23;;;8.60;92.60;;;8.81;67.07;98106.69;5008457;28;20336;-45
2021/11/15 06:20:21;;;;;;;14.73;9.23;;;8.60;92.60;;;8.81;66.98;98114.66;5006268;28;20100;-45
2021/11/15 06:22:49;;;;;;;14.60;8.57;;;8.70;92.50;;;8.81;66.90;98110.19;5007518;28;20045;-45
2021/11/15 06:25:17;;;;;;;14.53;9.83;;;8.70;92.50;;;8.78;66.80;98106.97;5007258;28;20209;-43
2021/11/15 06:27:45;;;;;;;17.70;10.20;;;8.60;92.20;;;8.74;66.86;98106.41;5006661;28;20053;-43
2021/11/15 06:30:18;;;;;;;15.50;9.17;;;8.70;93.00;;;8.76;66.99;98109.78;5006953;28;20057;-44
2021/11/15 06:32:47;;;;;;;18.00;10.57;;;8.70;92.20;;;8.75;66.88;98102.78;5006655;28;20066;-43
2021/11/15 06:35:15;;;;;;;14.60;9.40;;;8.60;92.20;;;8.77;66.94;98105.31;5006044;28;20053;-46
2021/11/15 06:37:43;;;;;;;15.43;8.67;;;8.60;92.30;;;8.75;67.10;98113.41;5007351;28;20049;-45
2021/11/15 06:40:14;;;;;;;14.50;9.47;;;8.60;92.20;;;8.75;66.79;98115.22;5005983;28;20060;-43
2021/11/15 06:42:43;;;;;;;16.83;10.50;;;8.60;92.40;;;8.73;66.68;98112.69;5007771;28;20054;-48
2021/11/15 06:45:11;;;;;;;15.63;10.27;;;8.60;92.30;;;8.73;66.91;98111.88;5007010;28;20060;-46
2021/11/15 06:47:41;;;;;;;15.57;9.40;;;8.60;92.20;;;8.70;66.93;98115.63;5005975;28;20049;-45
2021/11/15 06:50:19;;;;;;;12.73;8.67;;;8.50;92.30;;;8.71;66.96;98125.28;5006642;28;20054;-43
2021/11/15 06:52:48;;;;;;;13.17;8.53;;;8.50;92.20;;;8.73;67.00;98125.13;5006921;28;20058;-44
2021/11/15 06:55:20;;;;;;;19.37;12.50;;;8.50;92.50;;;8.74;66.95;98121.50;5006523;28;20488;-43
2021/11/15 06:57:49;;;;;;;14.20;8.83;;;8.70;92.60;;;8.72;66.79;98124.28;5007377;28;20068;-45
2021/11/15 07:00:25;;;;;;;15.00;10.10;;;8.60;92.40;;;8.71;66.77;98116.47;5006814;28;20264;-41
2021/11/15 07:02:55;;;;;;;16.00;9.70;;;8.50;92.20;;;8.71;66.96;98121.78;5007373;28;20033;-43
2021/11/15 07:05:24;;;;;;;16.37;9.07;;;8.50;92.10;;;8.70;66.93;98123.56;5006955;28;20054;-41
2021/11/15 07:07:54;;;;;;;12.33;7.57;;;8.50;92.20;;;8.69;66.91;98123.75;5007306;28;20057;-43
2021/11/15 07:10:22;;;;;;;21.40;8.30;;;8.50;92.50;;;8.67;66.72;98122.03;5006282;28;20050;-42
2021/11/15 07:12:51;;;;;;;14.53;7.20;;;8.50;92.60;;;8.70;66.79;98128.06;5006246;28;20054;-42
2021/11/15 07:15:20;;;;;;;11.33;7.10;;;8.50;92.70;;;8.70;66.91;98117.44;5005947;28;20256;-43
2021/11/15 07:17:48;;;;;;;13.43;7.10;;;8.50;92.50;;;8.70;67.03;98120.09;5005915;28;20352;-43
2021/11/15 07:20:16;;;;;;;12.87;7.27;;;8.50;92.60;;;8.72;66.81;98120.78;5004967;28;20054;-46
2021/11/15 07:22:47;;;;;;;19.53;8.13;;;8.50;92.50;;;8.71;66.70;98119.97;5005783;28;20046;-46
2021/11/15 07:25:21;;;;;;;13.50;8.00;;;8.60;92.20;;;8.72;66.78;98131.41;5005827;28;20365;-41
2021/11/15 07:27:52;;;;;;;16.52;9.02;;;8.60;92.00;;;8.70;66.77;98122.75;5007301;28;20061;-44
2021/11/15 07:30:20;;;;;;;14.23;7.77;;;8.50;92.20;;;8.69;66.69;98127.22;5004895;28;20058;-42
2021/11/15 07:32:50;;;;;;;15.30;8.93;;;8.50;92.50;;;8.69;66.72;98127.22;5006385;28;20061;-45
2021/11/15 07:35:19;;;;;;;15.50;8.57;;;8.50;92.30;;;8.70;66.69;98122.75;5004183;28;20053;-44
2021/11/15 07:37:47;;;;;;;11.77;7.73;;;8.50;92.40;;;8.70;66.87;98125.41;5003293;28;20061;-46
2021/11/15 07:40:17;;;;;;;14.20;7.97;;;8.50;92.20;;;8.69;66.82;98132.53;5020820;28;20362;-43
2021/11/15 07:42:46;;;;;;;13.57;8.07;;;8.60;92.20;;;8.68;66.85;98130.84;5026409;28;20061;-41
2021/11/15 07:45:15;;;;;;;15.67;8.67;;;8.60;92.10;;;8.66;66.89;98125.66;5025505;28;20053;-45
2021/11/15 07:47:43;;;;;;;10.70;7.37;;;8.60;92.00;;;8.67;66.68;98127.34;5025984;28;20075;-43
2021/11/15 07:50:13;;;;;;;9.50;6.47;;;8.60;91.90;;;8.68;66.84;98138.81;5025585;28;20057;-43
2021/11/15 07:52:41;;;;;;;13.53;8.03;;;8.60;92.20;;;8.72;66.91;98139.38;5026210;28;20057;-43
2021/11/15 07:55:13;;;;;;;16.13;8.80;;;8.60;92.20;;;8.74;66.95;98140.06;5025967;28;20067;-43
2021/11/15 07:57:42;;;;;;;13.80;8.73;;;8.60;92.20;;;8.74;66.87;98148.03;5024949;28;20061;-45
2021/11/15 08:00:16;;;;;;;14.80;9.60;;;8.60;92.10;;;8.73;66.73;98143.72;5025014;28;20335;-43
2021/11/15 08:02:45;;;;;;;14.27;9.00;;;8.60;92.10;;;8.72;66.71;98148.16;5024949;28;20052;-43
2021/11/15 08:05:17;;;;;;;13.97;9.17;;;8.60;92.20;;;8.72;66.69;98150.00;5026094;28;20260;-45
2021/11/15 08:07:46;;;;;;;14.23;9.00;;;8.60;92.20;;;8.71;67.08;98141.19;5025330;28;20051;-43
2021/11/15 08:10:18;;;;;;;13.13;9.37;;;8.60;92.10;;;8.73;66.95;98144.56;5024427;28;20056;-43
2021/11/15 08:12:49;;;;;;;13.03;8.00;;;8.60;92.40;;;8.73;67.07;98149.88;5025283;28;20059;-46
2021/11/15 08:15:19;;;;;;;13.40;8.53;;;8.60;92.50;;;8.76;66.94;98146.09;5025152;28;20084;-47
2021/11/15 08:17:51;;;;;;;14.10;8.23;;;8.60;92.50;;;8.76;66.85;98152.25;5025501;28;20067;-46
2021/11/15 08:20:25;;;;;;;14.70;8.33;;;8.60;92.70;;;8.76;66.90;98146.09;5025992;28;20061;-48
2021/11/15 08:22:59;;;;;;;16.77;10.20;;;8.60;92.70;;;8.76;67.15;98146.94;5025208;28;20225;-46
2021/11/15 08:26:26;;;;;;;14.40;8.60;;;8.60;92.70;;;8.72;66.99;98150.00;5023337;28;20050;-48
2021/11/15 08:29:15;;;;;;;15.53;9.20;;;8.60;91.80;;;8.74;66.93;98156.84;4987497;28;20057;-46
2021/11/15 08:31:46;;;;;;;14.97;8.67;;;8.60;92.60;;;8.72;67.29;98150.00;5022634;28;20060;-47
2021/11/15 08:34:14;;;;;;;12.57;8.40;;;8.60;93.00;;;8.72;67.10;98152.66;5025547;28;20063;-48
2021/11/15 08:36:43;;;;;;;17.83;10.27;;;8.50;93.00;;;8.72;67.16;98148.16;5025599;28;20087;-45
2021/11/15 08:39:21;;;;;;;17.27;9.20;;;8.50;93.00;;;8.72;67.25;98153.47;5034483;28;20068;-45
2021/11/15 08:41:55;;;;;;;13.83;9.33;;;8.60;93.20;;;8.72;67.15;98153.47;5051819;28;20071;-45
2021/11/15 08:44:23;;;;;;;;;;;8.60;93.20;;;8.68;67.19;98146.75;5057115;28;20051;-46
2021/11/15 08:46:56;;;;;;;12.13;8.60;;;8.50;92.60;;;8.72;67.14;98148.16;5058560;28;19931;-47
2021/11/15 08:49:29;;;;;;;14.50;8.57;;;8.60;93.00;;;8.74;67.21;98148.03;5058670;28;20049;-45
2021/11/15 08:51:58;;;;;;;14.10;9.37;;;8.60;92.90;;;8.74;67.29;98145.38;5058277;28;20059;-49
2021/11/15 08:54:27;;;;;;;19.43;9.73;;;8.60;92.80;;;8.73;67.16;98149.88;5053755;28;20049;-44
2021/11/15 08:57:03;;;;;;;16.10;9.97;;;8.50;93.00;;;8.71;67.03;98148.31;5052469;28;20045;-45
2021/11/15 08:59:44;;;;;;;13.43;9.03;;;8.60;92.50;;;8.69;67.34;98148.47;5051110;28;20053;-46
2021/11/15 09:02:12;;;;;;;17.47;8.30;;;8.60;92.80;;;8.70;67.16;98151.94;5056873;28;20041;-45
2021/11/15 09:04:41;;;;;;;12.73;8.60;;;8.60;92.90;;;8.69;67.16;98150.28;5055026;28;20051;-45
2021/11/15 09:07:09;;;;;;;11.93;7.83;;;8.60;92.60;;;8.69;67.33;98145.81;5054902;28;20057;-47
2021/11/15 09:09:38;;;;;;;11.47;8.13;;;8.60;92.70;;;8.70;67.27;98142.16;5056360;28;20045;-45
2021/11/15 09:12:09;;;;;;;13.37;8.23;;;8.60;92.60;;;8.71;67.23;98146.50;5057509;28;20049;-49
2021/11/15 09:14:37;;;;;;;15.50;8.67;;;8.60;92.80;;;8.71;67.23;98145.69;5058401;28;20049;-47
2021/11/15 09:17:06;;;;;;;11.83;7.50;;;8.60;92.90;;;8.72;67.12;98144.69;5059137;28;20367;-45
2021/11/15 09:19:35;;;;;;;12.20;7.90;;;8.60;92.80;;;8.72;67.30;98145.50;5060139;28;20377;-45
2021/11/15 09:22:03;;;;;;;16.60;8.97;;;8.60;93.10;;;8.72;67.48;98145.50;5060363;28;20053;-46
2021/11/15 09:24:31;;;;;;;13.60;8.23;;;8.60;93.30;;;8.73;67.61;98144.56;5061175;28;20377;-46
2021/11/15 09:27:01;;;;;;;12.77;7.70;;;8.60;93.60;;;8.74;67.48;98146.22;5061165;28;20061;-45
2021/11/15 09:29:29;;;;;;;17.07;8.43;;;8.60;93.70;;;8.75;67.68;98139.94;5061402;28;20430;-45
2021/11/15 09:31:58;;;;;;;12.70;7.83;;;8.60;93.70;;;8.78;67.70;98157.41;5060862;28;20051;-47
2021/11/15 09:34:26;;;;;;;17.20;9.20;;;8.60;93.70;;;8.78;67.55;98154.75;5059399;28;20055;-47
2021/11/15 09:36:54;;;;;;;13.23;6.93;;;8.60;93.70;;;8.78;67.60;98157.41;5058944;28;20045;-45
2021/11/15 09:39:23;;;;;;;15.17;8.37;;;8.60;93.90;;;8.78;67.53;98142.34;5077196;28;20056;-45
2021/11/15 09:41:52;;;;;;;12.50;7.27;;;8.60;93.90;;;8.79;67.78;98146.66;5055198;28;20132;-47
2021/11/15 09:44:19;;;;;;;14.23;9.20;;;8.60;93.90;;;8.81;67.64;98144.69;5059366;28;20045;-46
2021/11/15 09:46:47;;;;;;;15.50;9.43;;;8.70;94.00;;;8.83;67.53;98149.88;5060335;28;20318;-45
2021/11/15 09:49:15;;;;;;;16.93;8.93;;;8.70;93.70;;;8.84;67.50;98144.44;5060851;28;20406;-45
2021/11/15 09:51:47;;;;;;;16.33;8.23;;;8.70;93.40;;;8.84;67.56;98144.44;5060976;28;20326;-47
2021/11/15 09:54:18;;;;;;;12.27;8.17;;;8.70;93.20;;;8.87;67.50;98140.66;5059789;28;20074;-45
2021/11/15 09:56:47;;;;;;;13.50;8.03;;;8.80;93.00;;;8.88;67.69;98145.00;5061276;28;20063;-46
2021/11/15 09:59:16;;;;;;;16.10;9.27;;;8.80;93.20;;;8.91;67.30;98135.91;5059728;28;20409;-46
2021/11/15 10:01:48;;;;;;;16.47;8.43;;;8.80;93.00;;;8.91;67.66;98138.56;5061010;28;20298;-46
2021/11/15 10:04:18;;;;;;;13.77;9.10;;;8.80;92.90;;;8.91;67.61;98131.44;5061140;28;20049;-46
2021/11/15 10:06:48;;;;;;;16.03;10.13;;;8.80;93.00;;;8.92;67.39;98134.91;5056700;28;20045;-47
2021/11/15 10:09:25;;;;;;;13.70;8.33;;;8.80;93.00;;;8.91;67.38;98134.09;5060213;28;20063;-46
2021/11/15 10:11:53;;;;;;;12.90;8.43;;;8.80;93.00;;;8.92;67.53;98134.91;5060999;28;20051;-46
2021/11/15 10:14:22;;;;;;;13.33;7.70;;;8.80;93.10;;;8.94;67.49;98146.25;5060511;28;20056;-45
2021/11/15 10:17:01;;;;;;;14.67;7.83;;;8.80;93.00;;;8.93;67.37;98139.25;5076099;28;20053;-48
2021/11/15 10:19:32;;;;;;;16.43;8.43;;;8.80;92.70;;;8.90;67.28;98135.06;5060852;28;20048;-47
2021/11/15 10:22:04;;;;;;;14.97;8.40;;;8.70;93.20;;;8.90;67.33;98137.72;5058806;28;20053;-45
2021/11/15 10:24:39;;;;;;;16.53;9.20;;;8.80;93.10;;;8.91;67.38;98131.44;5058911;28;20400;-47
2021/11/15 10:27:13;;;;;;;13.93;8.93;;;8.80;92.70;;;8.92;67.28;98129.59;5058070;28;20098;-47
2021/11/15 10:29:48;;;;;;;14.07;8.48;;;8.80;92.90;;;8.94;67.33;98125.03;5057652;28;20044;-45
2021/11/15 10:32:28;;;;;;;17.03;8.90;;;8.80;92.80;;;8.95;67.25;98129.34;5060054;28;20436;-46
2021/11/15 10:35:03;;;;;;;14.83;8.73;;;8.80;92.70;;;8.97;67.41;98127.38;5059415;28;20040;-47